Time;durP1;ratioP1;P1;durP2;ratioP2;P2;SDS_P1;SDS_P2;PMS_P1;PMS_P2;Temp;Humidity;BMP_temperature;BMP_pressure;BME280_temperature;BME280_humidity;BME280_pressure;Samples;Min_cycle;Max_cycle;Signal;HPM_P1;HPM_P2
2023/08/24 00:00:35;;;;;;;13.15;3.75;;;18.60;98.40;;;;;;5007170;28;45172;-53
2023/08/24 00:03:03;;;;;;;10.27;3.72;;;18.60;99.50;;;;;;5017587;28;45623;-54
2023/08/24 00:05:30;;;;;;;11.80;3.53;;;18.70;99.20;;;;;;5017868;28;45373;-54
2023/08/24 00:07:56;;;;;;;14.65;3.75;;;18.70;97.30;;;;;;5019333;28;45770;-54
2023/08/24 00:10:23;;;;;;;9.23;3.25;;;18.90;96.50;;;;;;5020211;28;45365;-54
2023/08/24 00:12:51;;;;;;;8.15;3.03;;;19.00;96.20;;;;;;5015147;28;47322;-51
2023/08/24 00:15:18;;;;;;;8.20;3.08;;;18.90;99.30;;;;;;5010603;28;45400;-54
2023/08/24 00:17:45;;;;;;;15.68;3.58;;;18.60;99.90;;;;;;5015399;28;45165;-54
2023/08/24 00:20:12;;;;;;;9.52;3.65;;;18.60;99.80;;;;;;5013521;28;45469;-53
2023/08/24 00:22:40;;;;;;;12.23;3.47;;;18.50;99.90;;;;;;5015840;28;46543;-53
2023/08/24 00:25:08;;;;;;;12.00;3.50;;;18.50;99.80;;;;;;5019770;28;45103;-53
2023/08/24 00:27:35;;;;;;;12.95;3.65;;;18.60;99.90;;;;;;5012806;28;45200;-54
2023/08/24 00:30:04;;;;;;;9.00;3.40;;;18.40;99.90;;;;;;5020086;28;45289;-54
2023/08/24 00:32:34;;;;;;;9.23;3.50;;;18.30;99.90;;;;;;5008132;28;45349;-53
2023/08/24 00:35:01;;;;;;;9.40;3.63;;;18.30;99.90;;;;;;5017715;28;45237;-54
2023/08/24 00:37:28;;;;;;;11.77;4.07;;;18.40;99.90;;;;;;5012999;28;45365;-53
2023/08/24 00:39:55;;;;;;;12.35;3.90;;;18.40;99.90;;;;;;5018476;28;45216;-53
2023/08/24 00:42:22;;;;;;;9.48;3.70;;;18.40;99.90;;;;;;5012173;28;46204;-54
2023/08/24 00:44:49;;;;;;;6.03;3.42;;;18.50;99.90;;;;;;5021901;28;45166;-53
2023/08/24 00:47:18;;;;;;;8.85;3.38;;;18.40;99.90;;;;;;5018729;28;45272;-53
2023/08/24 00:49:45;;;;;;;6.68;3.45;;;18.40;99.90;;;;;;5008397;28;45301;-53
2023/08/24 00:52:12;;;;;;;7.47;3.55;;;18.30;99.90;;;;;;5014372;28;46223;-54
2023/08/24 00:54:40;;;;;;;13.95;3.67;;;18.30;99.90;;;;;;5018077;28;45121;-53
2023/08/24 00:57:07;;;;;;;8.73;3.65;;;18.10;99.90;;;;;;5012850;28;45234;-54
2023/08/24 00:59:35;;;;;;;6.63;3.35;;;17.70;99.90;;;;;;5003436;28;45321;-53
2023/08/24 01:02:02;;;;;;;7.75;3.28;;;17.70;99.90;;;;;;5008304;28;48630;-54
2023/08/24 01:04:31;;;;;;;8.00;3.40;;;17.80;99.90;;;;;;5007632;28;45679;-54
2023/08/24 01:06:57;;;;;;;5.07;2.85;;;18.00;99.90;;;;;;5018100;28;45292;-53
2023/08/24 01:09:25;;;;;;;9.30;3.03;;;17.90;99.90;;;;;;5015695;28;45321;-54
2023/08/24 01:12:02;;;;;;;11.27;3.05;;;17.60;99.90;;;;;;5003146;28;45167;-54
2023/08/24 01:14:39;;;;;;;6.88;3.20;;;17.50;99.90;;;;;;5012725;28;45214;-54
2023/08/24 01:17:11;;;;;;;6.90;3.17;;;17.30;99.90;;;;;;5016452;28;45156;-54
2023/08/24 01:19:42;;;;;;;4.90;3.30;;;17.20;99.90;;;;;;5019810;28;45210;-54
2023/08/24 01:22:21;;;;;;;6.00;3.03;;;17.20;99.90;;;;;;5014704;28;46966;-54
2023/08/24 01:24:54;;;;;;;6.10;3.33;;;17.30;99.90;;;;;;5003583;28;45179;-53
2023/08/24 01:27:23;;;;;;;7.38;2.90;;;17.50;99.90;;;;;;5010544;28;45304;-54
2023/08/24 01:29:52;;;;;;;9.07;3.45;;;17.60;99.90;;;;;;5010901;28;45393;-54
2023/08/24 01:32:19;;;;;;;4.30;3.05;;;17.60;99.90;;;;;;5015803;28;45235;-54
2023/08/24 01:34:45;;;;;;;12.60;3.88;;;17.70;99.90;;;;;;5019227;28;45151;-53
2023/08/24 01:37:12;;;;;;;7.63;3.80;;;17.80;99.90;;;;;;5016989;28;45119;-54
2023/08/24 01:39:55;;;;;;;12.43;3.47;;;17.80;99.90;;;;;;5017654;28;45460;-53
2023/08/24 01:42:32;;;;;;;10.30;3.45;;;17.90;99.90;;;;;;5017732;28;48047;-54
2023/08/24 01:45:03;;;;;;;8.90;3.83;;;17.80;99.90;;;;;;5019729;28;45329;-54
2023/08/24 01:47:31;;;;;;;13.13;4.07;;;17.90;99.90;;;;;;5018564;28;45112;-53
2023/08/24 01:49:59;;;;;;;7.10;3.25;;;17.90;99.90;;;;;;5016868;28;45306;-53
2023/08/24 01:52:27;;;;;;;7.05;3.00;;;18.00;99.90;;;;;;5015812;28;45223;-53
2023/08/24 01:54:53;;;;;;;8.65;2.97;;;18.10;99.90;;;;;;5022569;28;46191;-53
2023/08/24 01:57:20;;;;;;;7.15;3.60;;;18.00;99.90;;;;;;5019106;28;45105;-53
2023/08/24 01:59:48;;;;;;;7.60;3.28;;;17.90;99.90;;;;;;5024417;28;45065;-53
2023/08/24 02:02:15;;;;;;;10.82;3.58;;;17.90;99.90;;;;;;5017089;28;45194;-54
2023/08/24 02:04:42;;;;;;;8.88;3.25;;;17.90;99.90;;;;;;5016703;28;45331;-53
2023/08/24 02:07:09;;;;;;;7.85;2.80;;;17.90;99.90;;;;;;5015945;28;45150;-53
2023/08/24 02:09:35;;;;;;;5.93;3.10;;;18.00;99.90;;;;;;5013832;28;45310;-53
2023/08/24 02:12:03;;;;;;;7.10;2.80;;;18.00;99.90;;;;;;5019448;28;48032;-54
2023/08/24 02:14:30;;;;;;;11.38;3.53;;;18.00;99.90;;;;;;5017845;28;45179;-54
2023/08/24 02:16:58;;;;;;;8.23;3.00;;;17.90;99.90;;;;;;5014038;28;45465;-53
2023/08/24 02:19:25;;;;;;;9.00;2.78;;;17.80;99.90;;;;;;5025209;28;45119;-53
2023/08/24 02:21:51;;;;;;;6.97;3.00;;;17.70;99.90;;;;;;5017227;28;45418;-54
2023/08/24 02:24:18;;;;;;;8.15;2.80;;;17.40;99.90;;;;;;5029088;28;45310;-53
2023/08/24 02:26:45;;;;;;;4.40;2.90;;;17.30;99.90;;;;;;5014415;28;45285;-53
2023/08/24 02:29:11;;;;;;;6.18;2.90;;;17.30;99.90;;;;;;5013082;28;45242;-53
2023/08/24 02:31:38;;;;;;;6.50;3.20;;;17.40;99.90;;;;;;5013719;28;46362;-53
2023/08/24 02:34:06;;;;;;;9.30;2.95;;;17.40;99.90;;;;;;5015988;28;45218;-53
2023/08/24 02:36:33;;;;;;;7.32;3.58;;;17.40;99.90;;;;;;5016758;28;45199;-53
2023/08/24 02:39:00;;;;;;;7.97;3.03;;;17.40;99.90;;;;;;5016845;28;45400;-53
2023/08/24 02:41:28;;;;;;;14.30;3.70;;;17.50;99.90;;;;;;5012978;28;45241;-54
2023/08/24 02:43:55;;;;;;;9.00;3.53;;;17.60;99.90;;;;;;5015243;28;45981;-53
2023/08/24 02:46:22;;;;;;;12.82;4.03;;;17.80;99.90;;;;;;5008864;28;45261;-53
2023/08/24 02:48:49;;;;;;;11.25;4.07;;;17.90;99.90;;;;;;5018962;28;45290;-53
2023/08/24 02:51:17;;;;;;;8.88;3.80;;;18.10;99.90;;;;;;5020250;28;46044;-54
2023/08/24 02:53:44;;;;;;;7.93;3.75;;;18.10;99.90;;;;;;5018029;28;45119;-53
2023/08/24 02:56:10;;;;;;;9.57;3.97;;;18.20;99.90;;;;;;5014241;28;45234;-53
2023/08/24 02:58:37;;;;;;;8.88;3.92;;;18.30;99.90;;;;;;5017465;28;45119;-53
2023/08/24 03:01:06;;;;;;;14.90;4.30;;;18.40;99.90;;;;;;5022223;28;45255;-53
2023/08/24 03:03:33;;;;;;;11.27;3.97;;;18.40;99.90;;;;;;5016203;28;45256;-53
2023/08/24 03:06:02;;;;;;;8.00;3.80;;;18.50;99.90;;;;;;5019484;28;45164;-53
2023/08/24 03:08:31;;;;;;;9.63;4.20;;;18.60;99.90;;;;;;5014013;28;45124;-54
2023/08/24 03:10:58;;;;;;;7.95;3.70;;;18.60;99.90;;;;;;5014704;28;45519;-53
2023/08/24 03:13:25;;;;;;;8.02;3.63;;;18.60;99.90;;;;;;5013632;28;45250;-53
2023/08/24 03:15:52;;;;;;;8.02;4.18;;;18.50;99.90;;;;;;5013884;28;45282;-54
2023/08/24 03:18:19;;;;;;;11.52;3.90;;;18.50;99.90;;;;;;5018708;28;45091;-54
2023/08/24 03:20:48;;;;;;;7.40;3.05;;;18.50;99.90;;;;;;5016423;28;47032;-53
2023/08/24 03:23:14;;;;;;;10.05;3.58;;;18.40;99.90;;;;;;5020175;28;45280;-53
2023/08/24 03:25:43;;;;;;;11.45;3.95;;;18.10;99.90;;;;;;5016735;28;45166;-53
2023/08/24 03:28:10;;;;;;;7.40;3.15;;;18.00;99.90;;;;;;5017823;28;45301;-53
2023/08/24 03:30:40;;;;;;;10.63;3.40;;;17.90;99.90;;;;;;5006640;28;45188;-54
2023/08/24 03:33:07;;;;;;;13.40;3.70;;;17.90;99.90;;;;;;5020704;28;45302;-53
2023/08/24 03:35:35;;;;;;;7.50;3.30;;;18.10;99.90;;;;;;5014257;28;45261;-54
2023/08/24 03:38:01;;;;;;;8.68;4.55;;;18.20;99.90;;;;;;5021549;28;45353;-54
2023/08/24 03:40:28;;;;;;;12.40;4.30;;;18.30;99.90;;;;;;5019752;28;46392;-53
2023/08/24 03:42:56;;;;;;;12.95;4.00;;;18.20;99.90;;;;;;5018537;28;45353;-53
2023/08/24 03:45:23;;;;;;;8.60;3.97;;;18.20;99.90;;;;;;5009675;28;45165;-53
2023/08/24 03:47:51;;;;;;;10.60;4.00;;;18.20;99.90;;;;;;5014107;28;45305;-53
2023/08/24 03:50:18;;;;;;;8.73;3.40;;;18.30;99.90;;;;;;5018507;28;46297;-53
2023/08/24 03:52:45;;;;;;;8.40;3.53;;;18.70;99.90;;;;;;5019258;28;45142;-53
2023/08/24 03:55:11;;;;;;;7.90;3.53;;;19.50;99.90;;;;;;5017694;28;45163;-53
2023/08/24 03:57:38;;;;;;;10.05;3.35;;;20.00;99.90;;;;;;5013240;28;45102;-53
2023/08/24 04:00:10;;;;;;;5.88;3.10;;;20.20;99.90;;;;;;5018815;28;46518;-53
2023/08/24 04:02:38;;;;;;;9.43;3.47;;;20.30;99.90;;;;;;5019830;28;45332;-53
2023/08/24 04:05:05;;;;;;;5.45;2.88;;;20.40;99.90;;;;;;5013270;28;45606;-54
2023/08/24 04:07:33;;;;;;;6.78;3.13;;;20.50;99.90;;;;;;5016636;28;45302;-54
2023/08/24 04:09:59;;;;;;;10.23;3.28;;;20.60;99.90;;;;;;5010685;28;46439;-53
2023/08/24 04:12:26;;;;;;;7.05;3.00;;;20.60;99.90;;;;;;5006349;28;45318;-54
2023/08/24 04:14:53;;;;;;;9.43;3.50;;;20.60;99.90;;;;;;5009694;28;45203;-54
2023/08/24 04:17:21;;;;;;;6.38;2.70;;;20.60;99.90;;;;;;5015867;28;45152;-55
2023/08/24 04:19:48;;;;;;;6.20;3.03;;;20.60;99.90;;;;;;5010938;28;45468;-55
2023/08/24 04:22:15;;;;;;;11.10;3.38;;;20.60;99.90;;;;;;5018075;28;45786;-55
2023/08/24 04:24:42;;;;;;;8.43;3.42;;;20.60;99.90;;;;;;5004662;28;45182;-55
2023/08/24 04:27:09;;;;;;;12.13;3.45;;;20.60;99.90;;;;;;5013033;28;45057;-55
2023/08/24 04:29:36;;;;;;;9.45;3.50;;;20.60;99.90;;;;;;5009362;28;45291;-54
2023/08/24 04:32:02;;;;;;;7.35;3.47;;;20.50;99.90;;;;;;5008446;28;45191;-54
2023/08/24 04:34:30;;;;;;;6.80;3.63;;;20.50;99.90;;;;;;5016665;28;45178;-54
2023/08/24 04:36:57;;;;;;;5.07;3.13;;;20.50;99.90;;;;;;5016315;28;45231;-54
2023/08/24 04:39:24;;;;;;;7.07;3.10;;;20.50;99.90;;;;;;5007475;28;46299;-54
2023/08/24 04:41:51;;;;;;;7.15;3.25;;;20.60;99.90;;;;;;5014258;28;45167;-54
2023/08/24 04:44:18;;;;;;;7.15;3.03;;;20.60;99.90;;;;;;5017358;28;45189;-53
2023/08/24 04:46:44;;;;;;;8.52;4.18;;;20.70;99.90;;;;;;5005324;28;45144;-54
2023/08/24 04:49:11;;;;;;;7.40;4.22;;;20.00;99.90;;;;;;5014868;28;46344;-53
2023/08/24 04:51:39;;;;;;;8.27;3.70;;;18.90;99.90;;;;;;5009992;28;45076;-53
2023/08/24 04:54:06;;;;;;;6.00;3.35;;;19.10;99.90;;;;;;5011818;28;45301;-55
2023/08/24 04:56:33;;;;;;;12.52;4.53;;;19.70;99.90;;;;;;5016880;28;45399;-55
2023/08/24 04:59:00;;;;;;;8.55;4.35;;;19.10;99.90;;;;;;5015106;28;45507;-54
2023/08/24 05:01:27;;;;;;;12.38;4.57;;;19.70;99.90;;;;;;5011104;28;45176;-54
2023/08/24 05:03:54;;;;;;;13.82;5.18;;;19.00;99.90;;;;;;5017013;28;45238;-54
2023/08/24 05:06:22;;;;;;;9.32;4.93;;;19.10;99.90;;;;;;5016147;28;45120;-54
2023/08/24 05:08:50;;;;;;;12.27;4.65;;;19.10;99.90;;;;;;5018852;28;45247;-54
2023/08/24 05:11:19;;;;;;;9.60;3.85;;;19.50;99.90;;;;;;5015160;28;45338;-55
2023/08/24 05:13:46;;;;;;;4.18;2.60;;;20.00;99.90;;;;;;5008419;28;45679;-54
2023/08/24 05:16:13;;;;;;;5.30;2.40;;;21.60;99.90;;;;;;5012960;28;45338;-54
2023/08/24 05:18:40;;;;;;;4.28;2.40;;;22.10;99.90;;;;;;5013775;28;45274;-54
2023/08/24 05:21:07;;;;;;;9.40;3.85;;;22.30;99.90;;;;;;5020295;28;45304;-54
2023/08/24 05:23:35;;;;;;;4.63;2.42;;;22.30;99.90;;;;;;5012708;28;45123;-53
2023/08/24 05:26:04;;;;;;;7.72;3.17;;;21.80;99.90;;;;;;5021036;28;45305;-54
2023/08/24 05:28:31;;;;;;;6.10;2.55;;;21.80;99.90;;;;;;5013592;28;45187;-54
2023/08/24 05:30:58;;;;;;;4.60;2.60;;;22.10;99.90;;;;;;5017625;28;45648;-54
2023/08/24 05:33:26;;;;;;;8.20;2.38;;;22.30;99.90;;;;;;5010187;28;45104;-54
2023/08/24 05:35:53;;;;;;;9.02;2.78;;;22.50;99.90;;;;;;5017691;28;45321;-54
2023/08/24 05:38:20;;;;;;;8.75;3.72;;;22.60;99.90;;;;;;5019412;28;46531;-54
2023/08/24 05:40:49;;;;;;;7.00;2.40;;;22.30;99.90;;;;;;5011395;28;45212;-54
2023/08/24 05:43:17;;;;;;;7.03;2.33;;;22.50;99.90;;;;;;5012287;28;45223;-54
2023/08/24 05:45:44;;;;;;;5.28;2.40;;;22.70;99.90;;;;;;5015935;28;45297;-53
2023/08/24 05:48:12;;;;;;;8.10;2.63;;;22.60;99.90;;;;;;5017564;28;46346;-54
2023/08/24 05:50:43;;;;;;;6.93;2.70;;;22.50;99.90;;;;;;5017095;28;45158;-53
2023/08/24 05:53:09;;;;;;;6.15;2.65;;;22.70;99.90;;;;;;5021823;28;45114;-54
2023/08/24 05:55:36;;;;;;;6.38;2.55;;;22.40;99.90;;;;;;5009753;28;45314;-54
2023/08/24 05:58:03;;;;;;;8.32;2.45;;;22.60;99.90;;;;;;5010204;28;46694;-54
2023/08/24 06:00:32;;;;;;;7.75;2.60;;;22.80;99.90;;;;;;5009374;28;45328;-55
2023/08/24 06:02:59;;;;;;;8.55;2.47;;;22.80;99.90;;;;;;5003395;28;45305;-55
2023/08/24 06:05:26;;;;;;;13.63;2.72;;;22.80;99.90;;;;;;5015276;28;45418;-55
2023/08/24 06:07:54;;;;;;;10.02;2.65;;;22.90;99.90;;;;;;5012744;28;45436;-54
2023/08/24 06:10:21;;;;;;;4.30;2.17;;;22.90;99.90;;;;;;5013821;28;45290;-55
2023/08/24 06:12:48;;;;;;;10.02;2.90;;;22.90;99.90;;;;;;5012349;28;45313;-54
2023/08/24 06:15:15;;;;;;;8.35;2.60;;;22.90;99.90;;;;;;5018495;28;45268;-54
2023/08/24 06:17:44;;;;;;;4.97;2.58;;;22.90;99.90;;;;;;5010430;28;46690;-55
2023/08/24 06:20:12;;;;;;;7.70;2.58;;;22.90;99.90;;;;;;5013038;28;45286;-54
2023/08/24 06:22:39;;;;;;;8.57;2.55;;;22.90;99.90;;;;;;5014809;28;45194;-54
2023/08/24 06:25:08;;;;;;;7.80;2.60;;;22.90;99.90;;;;;;5007729;28;45266;-54
2023/08/24 06:27:35;;;;;;;5.60;2.63;;;23.00;99.90;;;;;;5008161;28;47480;-54
2023/08/24 06:30:03;;;;;;;7.85;2.67;;;23.00;99.90;;;;;;5020967;28;45096;-55
2023/08/24 06:32:30;;;;;;;9.45;2.78;;;23.00;99.90;;;;;;5017201;28;45267;-55
2023/08/24 06:34:59;;;;;;;9.23;3.20;;;23.00;99.90;;;;;;5016043;28;45127;-54
2023/08/24 06:37:26;;;;;;;8.73;2.60;;;23.00;99.90;;;;;;5020454;28;48832;-54
2023/08/24 06:39:53;;;;;;;4.30;2.53;;;23.00;99.90;;;;;;5027559;28;45295;-55
2023/08/24 06:42:19;;;;;;;7.40;2.83;;;22.90;99.90;;;;;;5008331;28;45101;-54
2023/08/24 06:44:49;;;;;;;4.13;2.15;;;22.90;99.90;;;;;;5025221;28;45341;-54
2023/08/24 06:47:16;;;;;;;7.15;2.97;;;23.00;99.90;;;;;;5017183;28;46514;-54
2023/08/24 06:49:43;;;;;;;6.90;2.60;;;23.00;99.90;;;;;;5014578;28;45376;-54
2023/08/24 06:52:11;;;;;;;7.75;3.10;;;22.90;99.90;;;;;;5019913;28;45408;-54
2023/08/24 06:54:38;;;;;;;5.70;2.45;;;22.90;99.90;;;;;;5020714;28;45270;-54
2023/08/24 06:57:05;;;;;;;4.97;2.42;;;22.90;99.90;;;;;;5014808;28;47967;-54
2023/08/24 06:59:32;;;;;;;3.53;2.35;;;22.80;99.90;;;;;;5010824;28;45174;-54
2023/08/24 07:01:58;;;;;;;6.40;2.38;;;22.90;99.90;;;;;;5017930;28;45244;-54
2023/08/24 07:04:26;;;;;;;5.05;2.50;;;23.00;99.90;;;;;;5010374;28;45208;-54
2023/08/24 07:06:53;;;;;;;4.18;2.20;;;23.10;99.90;;;;;;5026557;28;45461;-54
2023/08/24 07:09:21;;;;;;;6.80;2.88;;;22.90;99.90;;;;;;5024455;28;45242;-54
2023/08/24 07:11:49;;;;;;;3.95;2.35;;;22.90;99.90;;;;;;5014238;28;45199;-54
2023/08/24 07:14:15;;;;;;;5.13;2.28;;;23.10;99.90;;;;;;5017835;28;45239;-54
2023/08/24 07:16:42;;;;;;;9.38;2.53;;;23.00;99.90;;;;;;5010223;28;47979;-54
2023/08/24 07:19:10;;;;;;;5.60;2.42;;;23.00;99.90;;;;;;5014957;28;45126;-54
2023/08/24 07:21:37;;;;;;;5.40;3.10;;;23.10;99.90;;;;;;5008051;28;45403;-54
2023/08/24 07:24:04;;;;;;;4.97;2.53;;;23.10;99.90;;;;;;5009344;28;45378;-54
2023/08/24 07:26:32;;;;;;;6.95;2.72;;;23.10;99.90;;;;;;5007062;28;46102;-54
2023/08/24 07:29:00;;;;;;;5.38;2.72;;;23.20;99.90;;;;;;5006692;28;45473;-53
2023/08/24 07:31:27;;;;;;;9.40;2.83;;;23.10;99.90;;;;;;5010238;28;45120;-54
2023/08/24 07:33:54;;;;;;;6.47;2.30;;;23.20;99.90;;;;;;5018411;28;45299;-53
2023/08/24 07:36:21;;;;;;;6.10;3.28;;;23.20;99.90;;;;;;5018513;28;47180;-54
2023/08/24 07:38:48;;;;;;;5.80;2.80;;;23.10;99.90;;;;;;5010973;28;45302;-54
2023/08/24 07:41:17;;;;;;;4.68;2.58;;;23.20;99.90;;;;;;5015230;28;45217;-54
2023/08/24 07:43:45;;;;;;;5.57;3.15;;;23.10;99.90;;;;;;5012242;28;45149;-54
2023/08/24 07:46:12;;;;;;;5.00;2.58;;;23.20;99.90;;;;;;5009878;28;45431;-54
2023/08/24 07:48:38;;;;;;;9.00;2.55;;;23.30;99.90;;;;;;5017411;28;45377;-54
2023/08/24 07:51:05;;;;;;;5.57;2.47;;;23.30;99.90;;;;;;5014704;28;45381;-54
2023/08/24 07:53:32;;;;;;;4.85;2.85;;;23.20;99.90;;;;;;5009408;28;45343;-54
2023/08/24 07:55:59;;;;;;;3.95;2.35;;;23.30;99.90;;;;;;5011239;28;45503;-54
2023/08/24 07:58:26;;;;;;;4.75;2.63;;;23.20;99.90;;;;;;5012048;28;45219;-54
2023/08/24 08:00:54;;;;;;;6.82;2.78;;;23.20;99.90;;;;;;5011473;28;45314;-54
2023/08/24 08:03:21;;;;;;;6.38;2.78;;;23.20;99.90;;;;;;5012679;28;45567;-54
2023/08/24 08:05:48;;;;;;;4.72;2.30;;;23.20;99.90;;;;;;5006629;28;45467;-54
2023/08/24 08:08:15;;;;;;;4.53;2.50;;;23.20;99.90;;;;;;5011477;28;45286;-54
2023/08/24 08:10:43;;;;;;;9.38;2.83;;;23.30;99.90;;;;;;5007755;28;45350;-54
2023/08/24 08:13:11;;;;;;;5.15;2.72;;;23.30;99.90;;;;;;5007131;28;45335;-54
2023/08/24 08:15:38;;;;;;;5.75;2.53;;;23.30;99.90;;;;;;5009019;28;46545;-53
2023/08/24 08:18:07;;;;;;;4.38;2.40;;;23.30;99.90;;;;;;5012260;28;45409;-54
2023/08/24 08:20:33;;;;;;;6.15;2.40;;;23.30;99.90;;;;;;5007764;28;45318;-54
2023/08/24 08:23:00;;;;;;;4.25;2.30;;;23.30;99.90;;;;;;5010042;28;45398;-54
2023/08/24 08:25:28;;;;;;;8.75;2.72;;;23.30;99.90;;;;;;5009078;28;46029;-54
2023/08/24 08:27:54;;;;;;;5.35;2.60;;;23.30;99.90;;;;;;5010215;28;45252;-54
2023/08/24 08:30:21;;;;;;;3.80;2.72;;;23.30;99.90;;;;;;5009311;28;45177;-54
2023/08/24 08:32:48;;;;;;;5.97;2.53;;;23.30;99.90;;;;;;5019086;28;45254;-54
2023/08/24 08:35:16;;;;;;;5.70;2.70;;;23.30;99.90;;;;;;5010313;28;46226;-54
2023/08/24 08:37:43;;;;;;;6.15;2.10;;;23.30;99.90;;;;;;5017628;28;45545;-54
2023/08/24 08:40:12;;;;;;;8.40;2.50;;;23.30;99.90;;;;;;5012705;28;45133;-54
2023/08/24 08:42:39;;;;;;;5.10;2.72;;;23.30;99.90;;;;;;5015510;28;45179;-54
2023/08/24 08:45:10;;;;;;;4.78;2.28;;;23.30;99.90;;;;;;5017931;28;45242;-54
2023/08/24 08:47:37;;;;;;;3.72;2.38;;;23.30;99.90;;;;;;5012283;28;45172;-54
2023/08/24 08:50:05;;;;;;;7.40;2.35;;;23.30;99.90;;;;;;5009042;28;45139;-54
2023/08/24 08:52:33;;;;;;;7.38;2.38;;;23.30;99.90;;;;;;5006435;28;45159;-54
2023/08/24 08:55:00;;;;;;;4.25;2.20;;;23.30;99.90;;;;;;5010593;28;47269;-54
2023/08/24 08:57:27;;;;;;;5.40;2.40;;;23.30;99.90;;;;;;5011581;28;45178;-53
2023/08/24 08:59:54;;;;;;;5.10;2.25;;;23.40;99.90;;;;;;5008479;28;45201;-53
2023/08/24 09:02:24;;;;;;;5.82;2.10;;;23.30;99.90;;;;;;5011144;28;45343;-54
2023/08/24 09:04:52;;;;;;;5.45;2.45;;;23.40;99.90;;;;;;5011418;28;45178;-53
2023/08/24 09:07:20;;;;;;;6.40;2.60;;;23.40;99.90;;;;;;5015671;28;45169;-53
2023/08/24 09:09:48;;;;;;;5.07;2.20;;;23.40;99.90;;;;;;5006861;28;45178;-53
2023/08/24 09:12:15;;;;;;;4.97;2.30;;;23.40;99.90;;;;;;5007845;28;45638;-54
2023/08/24 09:14:42;;;;;;;3.75;2.13;;;23.50;99.90;;;;;;5007057;28;46356;-54
2023/08/24 09:17:09;;;;;;;3.78;2.13;;;23.40;99.90;;;;;;5010494;28;45258;-53
2023/08/24 09:19:38;;;;;;;4.47;2.33;;;23.30;99.90;;;;;;5013008;28;45166;-54
2023/08/24 09:22:05;;;;;;;2.75;2.03;;;23.40;99.90;;;;;;5015997;28;45171;-54
2023/08/24 09:24:32;;;;;;;3.28;2.10;;;23.40;99.90;;;;;;5007972;28;46233;-53
2023/08/24 09:27:01;;;;;;;4.35;2.35;;;23.40;99.90;;;;;;5004940;28;45188;-54
2023/08/24 09:29:31;;;;;;;6.68;2.50;;;23.40;99.90;;;;;;5008974;28;45243;-53
2023/08/24 09:31:58;;;;;;;2.95;1.80;;;23.40;99.90;;;;;;5009784;28;45460;-54
2023/08/24 09:34:27;;;;;;;5.38;2.25;;;23.40;99.90;;;;;;5014488;28;45247;-53
2023/08/24 09:36:54;;;;;;;6.00;2.33;;;23.40;99.90;;;;;;5009669;28;45279;-54
2023/08/24 09:39:21;;;;;;;4.75;2.38;;;23.40;99.90;;;;;;5014343;28;45266;-54
2023/08/24 09:41:50;;;;;;;6.97;2.15;;;23.40;99.90;;;;;;5016045;28;45344;-54
2023/08/24 09:44:19;;;;;;;7.13;2.42;;;23.40;99.90;;;;;;5017524;28;48272;-53
2023/08/24 09:46:46;;;;;;;5.05;2.17;;;23.40;99.90;;;;;;5007202;28;45255;-54
2023/08/24 09:49:13;;;;;;;3.72;2.17;;;23.40;99.90;;;;;;5014032;28;45218;-53
2023/08/24 09:51:43;;;;;;;4.93;2.20;;;23.30;99.90;;;;;;5007633;28;45310;-53
2023/08/24 09:54:13;;;;;;;4.32;1.83;;;23.40;99.90;;;;;;5015583;28;46588;-54
2023/08/24 09:56:40;;;;;;;3.88;1.83;;;23.40;99.90;;;;;;5006325;28;45163;-55
2023/08/24 09:59:14;;;;;;;2.88;2.13;;;23.40;99.90;;;;;;5020048;28;45188;-54
2023/08/24 10:01:44;;;;;;;3.88;2.10;;;23.30;99.90;;;;;;5011084;28;45320;-55
2023/08/24 10:04:13;;;;;;;3.00;2.10;;;23.20;99.90;;;;;;5011727;28;46990;-56
2023/08/24 10:06:40;;;;;;;3.80;2.05;;;23.20;99.90;;;;;;5009165;28;45178;-55
2023/08/24 10:09:12;;;;;;;4.82;1.90;;;23.20;99.90;;;;;;5006591;28;45171;-56
2023/08/24 10:11:47;;;;;;;5.90;1.85;;;23.10;99.90;;;;;;5011371;28;45402;-55
2023/08/24 10:14:19;;;;;;;2.38;1.80;;;23.10;99.90;;;;;;5010305;28;47495;-55
2023/08/24 10:16:49;;;;;;;3.55;1.90;;;23.10;99.90;;;;;;5006948;28;45110;-54
2023/08/24 10:19:16;;;;;;;2.38;1.75;;;23.20;99.90;;;;;;5010364;28;45455;-55
2023/08/24 10:21:44;;;;;;;3.60;1.92;;;23.10;99.90;;;;;;5013270;28;45095;-54
2023/08/24 10:24:12;;;;;;;4.10;1.90;;;23.10;99.90;;;;;;5015017;28;47108;-55
2023/08/24 10:26:40;;;;;;;4.82;1.95;;;23.10;99.90;;;;;;5017562;28;45111;-54
2023/08/24 10:29:08;;;;;;;6.85;2.45;;;23.00;99.90;;;;;;5009492;28;45248;-54
2023/08/24 10:31:35;;;;;;;4.45;2.20;;;23.00;99.90;;;;;;5008843;28;45328;-54
2023/08/24 10:34:06;;;;;;;2.78;1.90;;;23.00;99.90;;;;;;5019272;28;47596;-54
2023/08/24 10:36:34;;;;;;;3.90;2.03;;;23.00;99.90;;;;;;5009893;28;45044;-54
2023/08/24 10:39:05;;;;;;;3.15;1.83;;;23.00;99.90;;;;;;5005823;28;45048;-54
2023/08/24 10:41:47;;;;;;;2.55;1.55;;;23.00;99.90;;;;;;5004842;28;45121;-54
2023/08/24 10:44:22;;;;;;;4.05;2.03;;;23.00;99.90;;;;;;5009168;28;46516;-54
2023/08/24 10:47:06;;;;;;;2.70;1.90;;;23.00;99.90;;;;;;5012615;28;45302;-54
2023/08/24 10:49:34;;;;;;;4.53;1.95;;;23.00;99.90;;;;;;5014962;28;45234;-54
2023/08/24 10:52:20;;;;;;;2.78;1.75;;;23.00;99.90;;;;;;5003270;28;44660;-54
2023/08/24 10:54:48;;;;;;;2.05;1.45;;;23.00;99.90;;;;;;5001279;28;46252;-54
2023/08/24 10:57:23;;;;;;;3.38;2.35;;;23.00;99.90;;;;;;5019332;28;45276;-54
2023/08/24 11:00:00;;;;;;;1.88;1.50;;;23.00;99.90;;;;;;5010797;28;45320;-54
2023/08/24 11:02:27;;;;;;;5.55;2.33;;;22.90;99.90;;;;;;5008609;28;45167;-54
2023/08/24 11:05:15;;;;;;;3.97;2.17;;;22.90;99.90;;;;;;5002976;28;45392;-54
2023/08/24 11:07:53;;;;;;;3.90;2.13;;;22.90;99.90;;;;;;5007554;28;45305;-54
2023/08/24 11:10:20;;;;;;;3.38;2.15;;;22.90;99.90;;;;;;5010112;28;45178;-54
2023/08/24 11:13:06;;;;;;;4.50;2.38;;;22.90;99.90;;;;;;5008365;28;45299;-54
2023/08/24 11:15:34;;;;;;;2.95;1.80;;;22.90;99.90;;;;;;5013962;28;45593;-55
2023/08/24 11:18:22;;;;;;;2.47;1.75;;;22.90;99.90;;;;;;5020939;28;45201;-55
2023/08/24 11:20:51;;;;;;;3.90;2.08;;;23.00;99.90;;;;;;5017645;28;45290;-55
2023/08/24 11:23:19;;;;;;;4.47;2.22;;;22.90;99.90;;;;;;5014587;28;45073;-55
2023/08/24 11:25:46;;;;;;;4.85;2.10;;;22.90;99.90;;;;;;5014147;28;46564;-55
2023/08/24 11:28:18;;;;;;;5.57;2.20;;;22.90;99.90;;;;;;5018187;28;45235;-55
2023/08/24 11:30:45;;;;;;;7.03;2.00;;;22.90;99.90;;;;;;5023133;28;45197;-54
2023/08/24 11:33:12;;;;;;;4.00;2.40;;;22.90;99.90;;;;;;5017225;28;45234;-55
2023/08/24 11:35:41;;;;;;;5.70;2.42;;;22.90;99.90;;;;;;5018715;28;46303;-55
2023/08/24 11:38:09;;;;;;;2.15;1.58;;;23.00;99.90;;;;;;5011414;28;45084;-55
2023/08/24 11:40:37;;;;;;;2.40;1.70;;;23.00;99.90;;;;;;5010449;28;45205;-55
2023/08/24 11:43:04;;;;;;;4.47;2.15;;;23.00;99.90;;;;;;5022912;28;45120;-55
2023/08/24 11:45:32;;;;;;;5.60;2.55;;;23.00;99.90;;;;;;5015648;28;46309;-55
2023/08/24 11:48:00;;;;;;;6.32;2.83;;;23.00;99.90;;;;;;5023461;28;45084;-54
2023/08/24 11:50:28;;;;;;;3.65;2.20;;;23.00;99.90;;;;;;5021275;28;44753;-54
2023/08/24 11:52:55;;;;;;;3.70;2.00;;;23.00;99.90;;;;;;5004274;28;45152;-54
2023/08/24 11:55:23;;;;;;;2.55;1.70;;;23.00;99.90;;;;;;5009128;28;48454;-54
2023/08/24 11:57:50;;;;;;;3.95;1.98;;;23.00;99.90;;;;;;5009931;28;45139;-54
2023/08/24 12:00:19;;;;;;;6.32;2.30;;;23.10;99.90;;;;;;5004688;28;45241;-54
2023/08/24 12:02:46;;;;;;;7.03;2.38;;;23.10;99.90;;;;;;5017268;28;45623;-54
2023/08/24 12:05:23;;;;;;;4.95;1.90;;;23.20;99.90;;;;;;5011331;28;45362;-54
2023/08/24 12:07:51;;;;;;;10.77;2.75;;;23.20;99.90;;;;;;5016388;28;45143;-54
2023/08/24 12:10:18;;;;;;;8.90;3.28;;;23.30;99.90;;;;;;5013444;28;45291;-54
2023/08/24 12:12:47;;;;;;;11.80;2.92;;;23.30;99.90;;;;;;5015311;28;45320;-54
2023/08/24 12:15:19;;;;;;;14.40;3.58;;;23.10;99.90;;;;;;5009671;28;45235;-55
2023/08/24 12:17:47;;;;;;;11.40;3.70;;;22.90;99.90;;;;;;5012586;28;45194;-54
2023/08/24 12:20:22;;;;;;;11.50;4.28;;;22.60;99.90;;;;;;5019513;28;45167;-54
2023/08/24 12:22:53;;;;;;;12.68;3.78;;;22.50;99.90;;;;;;5009541;28;45447;-54
2023/08/24 12:25:22;;;;;;;17.73;4.47;;;22.50;99.90;;;;;;5017759;28;45205;-54
2023/08/24 12:27:51;;;;;;;8.30;3.60;;;22.40;99.90;;;;;;5012749;28;45150;-54
2023/08/24 12:30:18;;;;;;;10.98;3.55;;;22.40;99.90;;;;;;5016710;28;45099;-54
2023/08/24 12:32:46;;;;;;;12.43;3.63;;;22.40;99.90;;;;;;5015005;28;45119;-54
2023/08/24 12:35:13;;;;;;;14.27;3.80;;;22.40;99.90;;;;;;5013723;28;45440;-54
2023/08/24 12:37:40;;;;;;;9.20;4.10;;;22.50;99.90;;;;;;5012109;28;45162;-54
2023/08/24 12:40:08;;;;;;;11.20;4.25;;;22.40;99.90;;;;;;5004059;28;45233;-54
2023/08/24 12:42:35;;;;;;;13.32;4.43;;;22.50;99.90;;;;;;5013380;28;45233;-55
2023/08/24 12:45:05;;;;;;;13.25;4.50;;;22.60;99.90;;;;;;5010724;28;46373;-55
2023/08/24 12:47:34;;;;;;;10.93;4.85;;;22.60;99.90;;;;;;5007564;28;45062;-55
2023/08/24 12:50:01;;;;;;;10.63;4.57;;;22.60;99.90;;;;;;5015073;28;45135;-55